Time;durP1;ratioP1;P1;durP2;ratioP2;P2;SDS_P1;SDS_P2;PMS_P1;PMS_P2;Temp;Humidity;BMP_temperature;BMP_pressure;BME280_temperature;BME280_humidity;BME280_pressure;Samples;Min_cycle;Max_cycle;Signal;HPM_P1;HPM_P2
2023/10/11 00:02:16;;;;;;;;;;;;;;;20.31;60.90;101292.19;5042919;28;19975;-52
2023/10/11 00:04:42;;;;;;;;;;;;;;;20.31;61.12;101283.25;5040844;28;19960;-50
2023/10/11 00:07:07;;;;;;;;;;;;;;;20.31;60.91;101285.97;5044236;28;19909;-52
2023/10/11 00:09:35;;;;;;;;;;;;;;;20.31;61.21;101291.38;5040935;28;20379;-50
2023/10/11 00:12:11;;;;;;;;;;;;;;;20.31;61.00;101288.66;5043588;28;19973;-47
2023/10/11 00:14:39;;;;;;;;;;;;;;;20.30;61.14;101286.94;5041401;28;19917;-49
2023/10/11 00:17:05;;;;;;;;;;;;;;;20.29;60.94;101294.22;5037778;28;19913;-51
2023/10/11 00:19:33;;;;;;;;;;;;;;;20.29;60.83;101296.91;5039709;28;19980;-49
2023/10/11 00:21:58;;;;;;;;;;;;;;;20.29;61.01;101296.91;5040465;28;19909;-52
2023/10/11 00:24:24;;;;;;;;;;;;;;;20.29;60.92;101288.81;5071743;28;19936;-52
2023/10/11 00:26:49;;;;;;;;;;;;;;;20.29;61.15;101280.72;5043063;28;19952;-50
2023/10/11 00:29:15;;;;;;;;;;;;;;;20.29;61.09;101279.88;5041497;28;19924;-49
2023/10/11 00:31:40;;;;;;;;;;;;;;;20.29;60.79;101282.56;5040876;28;19971;-50
2023/10/11 00:34:10;;;;;;;;;;;;;;;20.28;60.94;101287.13;5040671;28;19979;-52
2023/10/11 00:36:35;;;;;;;;;;;;;;;20.28;60.91;101278.19;5039510;28;19975;-50
2023/10/11 00:39:00;;;;;;;;;;;;;;;20.28;61.10;101275.50;5036346;28;19917;-52
2023/10/11 00:41:30;;;;;;;;;;;;;;;20.28;61.06;101280.88;5040294;28;19935;-49
2023/10/11 00:43:56;;;;;;;;;;;;;;;20.28;61.14;101281.72;5039772;28;20315;-49
2023/10/11 00:46:35;;;;;;;;;;;;;;;20.29;60.83;101277.16;5041211;28;19913;-47
2023/10/11 00:49:09;;;;;;;;;;;;;;;20.28;61.20;101272.78;5040204;28;19909;-46
2023/10/11 00:51:36;;;;;;;;;;;;;;;20.27;60.81;101276.50;5041359;28;19913;-49
2023/10/11 00:54:02;;;;;;;;;;;;;;;20.26;60.88;101270.25;5040451;28;19910;-48
2023/10/11 00:56:33;;;;;;;;;;;;;;;20.27;60.77;101271.09;5037094;28;19948;-48
2023/10/11 00:58:59;;;;;;;;;;;;;;;20.26;60.91;101267.53;5036737;28;19909;-49
2023/10/11 01:01:24;;;;;;;;;;;;;;;20.26;60.85;101266.69;5043759;28;19919;-52
2023/10/11 01:03:52;;;;;;;;;;;;;;;20.25;60.90;101268.56;5032298;28;19920;-50
2023/10/11 01:06:17;;;;;;;;;;;;;;;20.26;60.82;101266.69;5035812;28;19943;-49
2023/10/11 01:08:43;;;;;;;;;;;;;;;20.26;61.01;101266.69;5036697;28;19941;-49
2023/10/11 01:11:11;;;;;;;;;;;;;;;20.25;60.92;101265.84;5031755;28;19921;-47
2023/10/11 01:13:40;;;;;;;;;;;;;;;20.25;60.73;101267.72;5038912;28;20368;-49
2023/10/11 01:16:06;;;;;;;;;;;;;;;20.25;60.72;101263.16;5034724;28;19941;-52
2023/10/11 01:18:32;;;;;;;;;;;;;;;20.23;60.79;101252.53;5037603;28;19924;-49
2023/10/11 01:20:58;;;;;;;;;;;;;;;20.25;60.86;101249.66;5037815;28;19913;-49
2023/10/11 01:23:25;;;;;;;;;;;;;;;20.23;60.77;101252.53;5040248;28;19932;-50
2023/10/11 01:25:50;;;;;;;;;;;;;;;20.23;61.01;101236.34;5036680;28;20007;-48
2023/10/11 01:28:15;;;;;;;;;;;;;;;20.23;60.72;101247.13;5034373;28;19912;-49
2023/10/11 01:30:40;;;;;;;;;;;;;;;20.23;61.00;101244.44;5042104;28;20451;-49
2023/10/11 01:33:07;;;;;;;;;;;;;;;20.23;60.75;101238.19;5037925;28;19909;-48
2023/10/11 01:35:36;;;;;;;;;;;;;;;20.23;61.03;101238.19;5036874;28;19917;-46
2023/10/11 01:38:04;;;;;;;;;;;;;;;20.22;60.69;101240.06;5042147;28;19924;-47
2023/10/11 01:40:31;;;;;;;;;;;;;;;20.22;60.77;101234.66;5040029;28;19993;-49
2023/10/11 01:42:57;;;;;;;;;;;;;;;20.21;60.69;101224.00;5036628;28;20007;-51
2023/10/11 01:45:25;;;;;;;;;;;;;;;20.22;60.65;101225.72;5043154;28;19924;-50
2023/10/11 01:47:50;;;;;;;;;;;;;;;20.21;60.66;101224.84;5036839;28;20375;-49
2023/10/11 01:50:16;;;;;;;;;;;;;;;20.22;60.75;101225.72;5041230;28;19928;-50
2023/10/11 01:52:42;;;;;;;;;;;;;;;20.21;60.94;101216.75;5041604;28;19913;-49
2023/10/11 01:55:10;;;;;;;;;;;;;;;20.21;60.65;101216.75;5038973;28;19909;-49
2023/10/11 01:57:38;;;;;;;;;;;;;;;20.22;60.65;101217.63;5040658;28;19984;-49
2023/10/11 02:00:06;;;;;;;;;;;;;;;20.20;60.88;101212.38;5039351;28;19909;-48
2023/10/11 02:02:35;;;;;;;;;;;;;;;20.21;60.76;101205.09;5039212;28;19956;-50
2023/10/11 02:05:04;;;;;;;;;;;;;;;20.20;60.89;101211.53;5039173;28;19923;-50
2023/10/11 02:07:31;;;;;;;;;;;;;;;20.21;60.82;101221.31;5038563;28;19917;-49
2023/10/11 02:09:56;;;;;;;;;;;;;;;20.20;60.70;101206.13;5036291;28;19913;-50
2023/10/11 02:12:22;;;;;;;;;;;;;;;20.19;60.68;101202.59;5038720;28;19982;-50
2023/10/11 02:14:47;;;;;;;;;;;;;;;20.20;60.95;101189.94;5037601;28;19913;-47
2023/10/11 02:17:13;;;;;;;;;;;;;;;20.19;60.62;101194.50;5041535;28;19989;-51
2023/10/11 02:19:38;;;;;;;;;;;;;;;20.19;60.67;101199.91;5039932;28;19909;-47
2023/10/11 02:22:03;;;;;;;;;;;;;;;20.19;60.74;101190.94;5037559;28;20431;-48
2023/10/11 02:24:28;;;;;;;;;;;;;;;20.19;60.89;101188.25;5040727;28;19919;-49
2023/10/11 02:26:54;;;;;;;;;;;;;;;20.18;60.63;101190.13;5036690;28;19976;-47
2023/10/11 02:29:20;;;;;;;;;;;;;;;20.18;60.51;101183.88;5039790;28;19917;-50
2023/10/11 02:31:52;;;;;;;;;;;;;;;20.17;60.71;101188.41;5041936;28;19913;-49
2023/10/11 02:34:17;;;;;;;;;;;;;;;20.17;60.82;101184.88;5035789;28;19935;-50
2023/10/11 02:36:43;;;;;;;;;;;;;;;20.17;60.63;101183.00;5041932;28;19955;-47
2023/10/11 02:39:17;;;;;;;;;;;;;;;20.17;60.74;101180.31;5037102;28;19943;-48
2023/10/11 02:41:45;;;;;;;;;;;;;;;20.16;60.54;101178.63;5040326;28;20188;-50
2023/10/11 02:44:11;;;;;;;;;;;;;;;20.17;60.75;101182.16;5034390;28;19913;-48
2023/10/11 02:46:36;;;;;;;;;;;;;;;20.16;60.49;101175.94;5038616;28;19913;-48
2023/10/11 02:49:05;;;;;;;;;;;;;;;20.17;60.59;101179.47;5038502;28;19917;-48
2023/10/11 02:51:33;;;;;;;;;;;;;;;20.15;60.57;101166.16;5039898;28;19936;-47
2023/10/11 02:53:58;;;;;;;;;;;;;;;20.15;60.54;101168.00;5038532;28;19909;-47
2023/10/11 02:56:24;;;;;;;;;;;;;;;20.14;60.59;101161.78;5038088;28;19928;-50
2023/10/11 02:58:49;;;;;;;;;;;;;;;20.16;60.48;101167.00;5036040;28;19920;-46
2023/10/11 03:01:15;;;;;;;;;;;;;;;20.15;60.45;101162.59;5039568;28;20257;-49
2023/10/11 03:03:44;;;;;;;;;;;;;;;20.14;60.70;101172.56;5031568;28;19916;-51
2023/10/11 03:06:09;;;;;;;;;;;;;;;20.14;60.84;101171.72;5036608;28;19923;-49
2023/10/11 03:08:35;;;;;;;;;;;;;;;20.14;60.78;101167.16;5033619;28;19913;-46
2023/10/11 03:11:04;;;;;;;;;;;;;;;20.13;60.66;101168.16;5070274;28;19935;-48
2023/10/11 03:13:30;;;;;;;;;;;;;;;20.13;60.50;101170.03;5032994;28;19921;-51
2023/10/11 03:15:56;;;;;;;;;;;;;;;20.13;60.46;101172.72;5041808;28;20372;-50
2023/10/11 03:18:25;;;;;;;;;;;;;;;20.12;60.68;101171.88;5036747;28;19917;-51
2023/10/11 03:21:39;;;;;;;;;;;;;;;20.13;60.75;101183.50;5036226;28;19914;-48
2023/10/11 03:23:49;;;;;;;;;;;;;;;20.12;60.48;101176.44;5029297;28;19909;-49
2023/10/11 03:26:22;;;;;;;;;;;;;;;20.11;60.44;101178.31;5035899;28;19969;-47
2023/10/11 03:28:57;;;;;;;;;;;;;;;20.12;60.41;101184.53;5036073;28;19935;-48
2023/10/11 03:31:28;;;;;;;;;;;;;;;20.10;60.70;101176.63;5035393;28;20383;-47
2023/10/11 03:34:14;;;;;;;;;;;;;;;20.11;60.66;101172.91;5039891;28;20435;-50
2023/10/11 03:36:43;;;;;;;;;;;;;;;20.10;60.69;101163.13;5032886;28;20380;-47
2023/10/11 03:39:13;;;;;;;;;;;;;;;20.11;60.54;101166.66;5040588;28;19919;-46
2023/10/11 03:41:45;;;;;;;;;;;;;;;20.10;60.71;101170.38;5040710;28;19909;-48
2023/10/11 03:44:20;;;;;;;;;;;;;;;20.09;60.48;101156.03;5030114;28;20291;-52
2023/10/11 03:46:47;;;;;;;;;;;;;;;20.09;60.71;101155.19;5038760;28;19909;-47
2023/10/11 03:51:43;;;;;;;;;;;;;;;20.10;60.69;101143.38;5043951;28;19935;-47
2023/10/11 03:54:22;;;;;;;;;;;;;;;20.08;60.45;101145.41;5041951;28;20231;-49
2023/10/11 03:56:52;;;;;;;;;;;;;;;20.08;60.43;101137.31;5049092;28;19913;-48
2023/10/11 03:59:18;;;;;;;;;;;;;;;20.08;60.44;101142.69;5042366;28;19921;-49
2023/10/11 04:01:44;;;;;;;;;;;;;;;20.08;60.38;101153.50;5044127;28;19909;-52
2023/10/11 04:04:09;;;;;;;;;;;;;;;20.07;60.47;101149.13;5041471;28;19983;-51
2023/10/11 04:06:34;;;;;;;;;;;;;;;20.06;60.51;101153.69;5041374;28;19917;-50
2023/10/11 04:09:03;;;;;;;;;;;;;;;20.06;60.70;101152.84;5042879;28;19932;-49
2023/10/11 04:11:54;;;;;;;;;;;;;;;20.06;60.65;101153.69;5040898;28;19917;-52
2023/10/11 04:14:39;;;;;;;;;;;;;;;20.06;60.48;101150.13;5041876;28;19921;-50
2023/10/11 04:19:47;;;;;;;;;;;;;;;20.05;60.47;101157.41;5040522;28;20040;-49
2023/10/11 04:22:24;;;;;;;;;;;;;;;20.05;60.49;101145.72;5044556;28;19913;-50
2023/10/11 04:24:52;;;;;;;;;;;;;;;20.04;60.41;101136.78;5037323;28;19917;-50
2023/10/11 04:29:47;;;;;;;;;;;;;;;20.04;60.75;101130.56;5040846;28;19994;-48
2023/10/11 04:32:19;;;;;;;;;;;;;;;20.03;60.55;101127.03;5039021;28;19920;-49
2023/10/11 04:34:55;;;;;;;;;;;;;;;20.04;60.82;101117.06;5037745;28;19913;-48
2023/10/11 04:37:27;;;;;;;;;;;;;;;20.03;60.75;101121.63;5040215;28;19921;-50
2023/10/11 04:39:57;;;;;;;;;;;;;;;20.04;60.81;101128.69;5043414;28;19924;-49
2023/10/11 04:42:28;;;;;;;;;;;;;;;20.04;60.61;101127.84;5042354;28;19919;-49
2023/10/11 04:44:56;;;;;;;;;;;;;;;20.03;60.86;101137.81;5037798;28;19917;-49
2023/10/11 04:47:23;;;;;;;;;;;;;;;20.03;60.75;101153.16;5043848;28;19923;-47
2023/10/11 04:49:52;;;;;;;;;;;;;;;20.04;60.81;101161.09;5042069;28;20377;-49
2023/10/11 04:52:22;;;;;;;;;;;;;;;20.03;61.12;101162.09;5041645;28;20408;-47
2023/10/11 04:54:54;;;;;;;;;;;;;;;20.04;61.01;101163.78;5041177;28;19917;-49
2023/10/11 04:57:24;;;;;;;;;;;;;;;20.03;61.27;101156.72;5038273;28;19992;-49
2023/10/11 04:59:51;;;;;;;;;;;;;;;20.04;61.08;101158.38;5043199;28;19917;-47
2023/10/11 05:02:18;;;;;;;;;;;;;;;20.05;61.12;101152.00;5040092;28;19912;-50
2023/10/11 05:04:44;;;;;;;;;;;;;;;20.05;61.19;101151.13;5040118;28;19920;-53
2023/10/11 05:07:10;;;;;;;;;;;;;;;20.05;61.24;101141.19;5033232;28;19913;-48
2023/10/11 05:09:39;;;;;;;;;;;;;;;20.05;61.51;101135.81;5035991;28;19917;-51
2023/10/11 05:12:09;;;;;;;;;;;;;;;20.04;61.57;101128.69;5036318;28;19928;-48
2023/10/11 05:19:47;;;;;;;;;;;;;;;20.06;61.52;101136.66;5033889;28;19920;-49
2023/10/11 05:51:26;;;;;;;;;;;;;;;20.05;62.10;101132.22;5041398;28;19936;-51
2023/10/11 05:53:55;;;;;;;;;;;;;;;20.06;61.80;101136.66;5038889;28;19921;-48
2023/10/11 05:56:20;;;;;;;;;;;;;;;20.05;61.86;101135.81;5038317;28;19936;-49
2023/10/11 05:58:50;;;;;;;;;;;;;;;20.05;61.86;101132.22;5068029;28;19917;-51
2023/10/11 06:01:17;;;;;;;;;;;;;;;20.06;61.79;101134.78;5038557;28;19909;-49
2023/10/11 06:03:43;;;;;;;;;;;;;;;20.07;62.02;101151.81;5036925;28;19909;-50
2023/10/11 06:06:23;;;;;;;;;;;;;;;20.06;62.06;101144.75;5042100;28;19909;-52
2023/10/11 06:08:50;;;;;;;;;;;;;;;20.07;61.97;101143.72;5033018;28;19913;-49
2023/10/11 06:11:15;;;;;;;;;;;;;;;20.08;61.91;101148.09;5040612;28;20295;-53
2023/10/11 06:13:43;;;;;;;;;;;;;;;20.08;61.83;101148.94;5041742;28;19932;-51
2023/10/11 06:16:13;;;;;;;;;;;;;;;20.08;61.97;101148.94;5038800;28;19920;-53
2023/10/11 06:18:55;;;;;;;;;;;;;;;20.08;61.95;101153.50;5039214;28;19909;-50
2023/10/11 06:21:33;;;;;;;;;;;;;;;20.07;61.99;101155.34;5038327;28;20405;-52
2023/10/11 06:24:04;;;;;;;;;;;;;;;20.08;62.01;101162.44;5037391;28;19913;-51
2023/10/11 06:26:29;;;;;;;;;;;;;;;20.09;61.71;101165.97;5041400;28;19916;-50
2023/10/11 06:29:02;;;;;;;;;;;;;;;20.08;61.67;101167.84;5036376;28;19920;-48
2023/10/11 06:31:33;;;;;;;;;;;;;;;20.09;61.67;101171.38;5039784;28;19913;-49
2023/10/11 06:34:01;;;;;;;;;;;;;;;20.08;61.95;101178.63;5038701;28;19913;-52
2023/10/11 06:36:29;;;;;;;;;;;;;;;20.08;61.96;101175.94;5036708;28;19916;-48
2023/10/11 06:38:54;;;;;;;;;;;;;;;20.09;61.79;101169.53;5037495;28;19909;-48
2023/10/11 06:41:53;;;;;;;;;;;;;;;20.09;62.06;101161.44;5039900;28;20335;-48
2023/10/11 06:44:11;;;;;;;;;;;;;;;20.10;61.95;101154.19;5036640;28;19920;-53
2023/10/11 06:46:37;;;;;;;;;;;;;;;20.10;61.67;101156.88;5039732;28;19964;-50
2023/10/11 06:49:04;;;;;;;;;;;;;;;20.10;61.95;101159.59;5034872;28;19909;-49
2023/10/11 06:51:29;;;;;;;;;;;;;;;20.10;61.81;101168.53;5037561;28;19913;-50
2023/10/11 06:53:57;;;;;;;;;;;;;;;20.09;61.50;101169.53;5036999;28;19952;-50
2023/10/11 06:56:22;;;;;;;;;;;;;;;20.09;61.73;101169.53;5037525;28;19969;-49
2023/10/11 06:58:47;;;;;;;;;;;;;;;20.09;61.73;101174.94;5035607;28;19913;-50
2023/10/11 07:01:14;;;;;;;;;;;;;;;20.10;61.57;101170.38;5035099;28;20399;-49
2023/10/11 07:03:39;;;;;;;;;;;;;;;20.10;61.47;101167.69;5036566;28;19913;-51
2023/10/11 07:06:11;;;;;;;;;;;;;;;20.10;61.63;101183.88;5038167;28;19913;-50
2023/10/11 07:08:48;;;;;;;;;;;;;;;20.11;61.62;101190.94;5034460;28;19909;-48
2023/10/11 07:11:17;;;;;;;;;;;;;;;20.10;61.49;101202.78;5038929;28;19921;-51
2023/10/11 07:13:56;;;;;;;;;;;;;;;20.11;61.13;101196.34;5036187;28;19912;-50
2023/10/11 07:16:22;;;;;;;;;;;;;;;20.10;61.35;101183.88;5037416;28;19916;-48
2023/10/11 07:18:48;;;;;;;;;;;;;;;20.10;61.48;101189.28;5037268;28;19909;-49
2023/10/11 07:21:15;;;;;;;;;;;;;;;20.09;61.48;101183.03;5035234;28;20323;-49
2023/10/11 07:26:48;;;;;;;;;;;;;;;20.10;61.35;101160.44;5048271;28;19963;-48
2023/10/11 07:29:09;;;;;;;;;;;;;;;20.09;61.29;101174.94;5037910;28;19964;-50
2023/10/11 07:31:38;;;;;;;;;;;;;;;20.10;61.07;101179.31;5041942;28;19921;-51
2023/10/11 07:34:08;;;;;;;;;;;;;;;20.10;61.37;101175.78;5040887;28;19908;-52
2023/10/11 07:36:37;;;;;;;;;;;;;;;20.11;61.38;101182.84;5035013;28;20367;-48
2023/10/11 07:39:14;;;;;;;;;;;;;;;20.10;61.33;101179.31;5038952;28;19945;-49
2023/10/11 07:41:42;;;;;;;;;;;;;;;20.10;61.29;101173.91;5041764;28;19919;-50
2023/10/11 07:44:07;;;;;;;;;;;;;;;20.10;60.91;101184.72;5038558;28;19913;-51
2023/10/11 07:46:32;;;;;;;;;;;;;;;20.11;61.02;101196.34;5040245;28;20062;-52
2023/10/11 07:49:03;;;;;;;;;;;;;;;20.11;60.99;101199.06;5035712;28;19909;-48
2023/10/11 07:51:29;;;;;;;;;;;;;;;20.11;61.14;101199.06;5033653;28;19908;-50
2023/10/11 07:53:55;;;;;;;;;;;;;;;20.11;61.13;101202.59;5038585;28;19935;-50
2023/10/11 07:56:20;;;;;;;;;;;;;;;20.11;61.13;101212.56;5046028;28;19909;-50
2023/10/11 07:58:46;;;;;;;;;;;;;;;20.11;60.86;101215.25;5040658;28;19917;-47
2023/10/11 08:03:55;;;;;;;;;;;;;;;20.10;60.90;101219.81;5042851;28;19919;-50
2023/10/11 08:06:24;;;;;;;;;;;;;;;20.11;60.99;101216.09;5038270;28;19913;-49
2023/10/11 08:08:59;;;;;;;;;;;;;;;20.11;61.13;101210.69;5042436;28;19995;-51
2023/10/11 08:11:24;;;;;;;;;;;;;;;20.12;60.89;101208.84;5040037;28;20004;-48
2023/10/11 08:13:50;;;;;;;;;;;;;;;20.12;61.09;101204.28;5041142;28;19948;-48
2023/10/11 08:16:18;;;;;;;;;;;;;;;20.13;60.89;101205.13;5045499;28;19916;-50
2023/10/11 08:18:48;;;;;;;;;;;;;;;20.12;60.95;101201.56;5039614;28;19934;-48
2023/10/11 08:21:14;;;;;;;;;;;;;;;20.13;61.06;101194.31;5039475;28;19935;-49
2023/10/11 08:23:42;;;;;;;;;;;;;;;20.13;60.85;101200.56;5044617;28;20407;-47
2023/10/11 08:26:08;;;;;;;;;;;;;;;20.14;61.00;101198.72;5039436;28;19969;-48
2023/10/11 08:28:34;;;;;;;;;;;;;;;20.14;61.02;101198.72;5042324;28;19915;-49
2023/10/11 08:30:59;;;;;;;;;;;;;;;20.13;61.05;101188.91;5045075;28;19920;-47
2023/10/11 08:33:31;;;;;;;;;;;;;;;20.14;60.78;101177.13;5040906;28;19909;-49
2023/10/11 08:35:56;;;;;;;;;;;;;;;20.14;61.04;101167.16;5041454;28;20339;-50
2023/10/11 08:38:24;;;;;;;;;;;;;;;20.14;60.92;101161.78;5041601;28;19917;-48
2023/10/11 08:40:51;;;;;;;;;;;;;;;20.16;60.99;101188.59;5039735;28;19936;-49
2023/10/11 08:43:16;;;;;;;;;;;;;;;20.15;60.93;101184.22;5044152;28;19951;-49
2023/10/11 08:45:47;;;;;;;;;;;;;;;20.15;60.72;101193.16;5038214;28;19913;-49
2023/10/11 08:48:12;;;;;;;;;;;;;;;20.15;61.03;101206.63;5040506;28;19916;-48
2023/10/11 08:50:37;;;;;;;;;;;;;;;20.15;60.73;101203.94;5039188;28;19910;-51
2023/10/11 08:53:08;;;;;;;;;;;;;;;20.15;60.93;101203.94;5041020;28;19916;-48
2023/10/11 08:55:35;;;;;;;;;;;;;;;20.15;60.93;101195.00;5039553;28;20127;-48
2023/10/11 08:58:04;;;;;;;;;;;;;;;20.15;61.03;101206.63;5039919;28;19968;-51
2023/10/11 09:00:31;;;;;;;;;;;;;;;20.15;60.96;101209.34;5038380;28;20096;-52
2023/10/11 09:02:58;;;;;;;;;;;;;;;20.15;60.84;101209.34;5040347;28;19915;-48
2023/10/11 09:05:32;;;;;;;;;;;;;;;20.15;60.90;101212.03;5039539;28;19909;-48
2023/10/11 09:07:57;;;;;;;;;;;;;;;20.15;60.97;101209.34;5037186;28;19915;-50
2023/10/11 09:10:28;;;;;;;;;;;;;;;20.14;60.79;101213.06;5041937;28;19964;-49
2023/10/11 09:12:56;;;;;;;;;;;;;;;20.15;61.04;101216.59;5040070;28;19910;-49
2023/10/11 09:15:23;;;;;;;;;;;;;;;20.15;60.97;101222.84;5039382;28;20297;-48
2023/10/11 09:17:50;;;;;;;;;;;;;;;20.14;60.71;101198.72;5040363;28;19980;-48
2023/10/11 09:20:15;;;;;;;;;;;;;;;20.15;60.84;101190.44;5038218;28;19909;-50
2023/10/11 09:22:47;;;;;;;;;;;;;;;20.15;60.90;101198.53;5039091;28;19973;-49
2023/10/11 09:25:21;;;;;;;;;;;;;;;20.14;61.06;101199.56;5040399;28;19949;-48
2023/10/11 09:27:50;;;;;;;;;;;;;;;20.15;60.78;101203.09;5038593;28;19909;-51
2023/10/11 09:30:21;;;;;;;;;;;;;;;20.15;60.78;101209.34;5038801;28;19913;-50
2023/10/11 09:32:51;;;;;;;;;;;;;;;20.15;61.06;101213.91;5035541;28;19914;-52
2023/10/11 09:35:29;;;;;;;;;;;;;;;20.15;60.99;101239.03;5037854;28;19916;-53
2023/10/11 09:37:58;;;;;;;;;;;;;;;20.15;60.97;101216.59;5037433;28;19913;-49
2023/10/11 09:40:29;;;;;;;;;;;;;;;20.16;61.02;101212.88;5029889;28;19916;-51
2023/10/11 09:42:56;;;;;;;;;;;;;;;20.15;60.99;101213.91;5037201;28;20355;-51
2023/10/11 09:45:22;;;;;;;;;;;;;;;20.15;60.97;101222.84;5037448;28;20316;-51
2023/10/11 09:47:54;;;;;;;;;;;;;;;20.15;61.10;101228.25;5032737;28;19925;-52
2023/10/11 09:50:19;;;;;;;;;;;;;;;20.15;61.00;101236.34;5037234;28;19916;-49
2023/10/11 09:52:47;;;;;;;;;;;;;;;20.15;61.09;101241.72;5037129;28;19969;-51
2023/10/11 09:55:17;;;;;;;;;;;;;;;20.15;60.79;101249.84;5040928;28;19913;-49
2023/10/11 09:57:50;;;;;;;;;;;;;;;20.15;61.00;101254.41;5034823;28;19971;-49
2023/10/11 10:00:34;;;;;;;;;;;;;;;20.15;61.17;101247.13;5032740;28;19910;-49
2023/10/11 10:02:59;;;;;;;;;;;;;;;20.15;61.13;101251.69;5036254;28;19920;-49
2023/10/11 10:05:30;;;;;;;;;;;;;;;20.15;60.97;101257.94;5036474;28;19913;-51
2023/10/11 10:07:58;;;;;;;;;;;;;;;20.15;61.18;101254.41;5038644;28;19919;-48
2023/10/11 10:10:26;;;;;;;;;;;;;;;20.15;61.23;101273.28;5036518;28;19940;-49
2023/10/11 10:12:55;;;;;;;;;;;;;;;20.15;61.43;101273.28;5041918;28;19948;-48
2023/10/11 10:15:23;;;;;;;;;;;;;;;20.15;61.37;101278.69;5039266;28;19952;-49
2023/10/11 10:18:00;;;;;;;;;;;;;;;20.15;61.17;101281.41;5039448;28;19913;-53
2023/10/11 10:20:28;;;;;;;;;;;;;;;20.15;61.44;101282.22;5040451;28;19931;-48
2023/10/11 10:23:12;;;;;;;;;;;;;;;20.16;61.48;101288.47;5039855;28;19909;-47
2023/10/11 10:25:38;;;;;;;;;;;;;;;20.15;61.28;101287.63;5038494;28;19968;-50
2023/10/11 10:28:03;;;;;;;;;;;;;;;20.16;61.66;101274.97;5041555;28;19936;-48
2023/10/11 10:30:28;;;;;;;;;;;;;;;20.15;61.23;101257.94;5071518;28;20003;-49
2023/10/11 10:33:18;;;;;;;;;;;;;;;20.16;61.68;101258.78;5070041;28;19913;-50
2023/10/11 10:35:43;;;;;;;;;;;;;;;20.16;61.58;101256.06;5040070;28;19909;-49
2023/10/11 10:38:09;;;;;;;;;;;;;;;20.16;61.43;101274.97;5037807;28;19920;-49
2023/10/11 10:40:37;;;;;;;;;;;;;;;20.15;61.62;101276.84;5039872;28;20101;-51
2023/10/11 10:43:22;;;;;;;;;;;;;;;20.16;61.51;101291.16;5037937;28;19972;-51
2023/10/11 10:45:48;;;;;;;;;;;;;;;20.15;61.71;101290.34;5039846;28;19915;-48
2023/10/11 10:48:14;;;;;;;;;;;;;;;20.16;61.46;101283.91;5039894;28;19932;-49
2023/10/11 10:50:46;;;;;;;;;;;;;;;20.15;61.65;101298.44;5038040;28;20134;-47
2023/10/11 10:53:14;;;;;;;;;;;;;;;20.17;61.74;101288.28;5039828;28;19951;-48
2023/10/11 10:55:42;;;;;;;;;;;;;;;20.16;61.69;101299.28;5040842;28;19964;-48
2023/10/11 10:58:07;;;;;;;;;;;;;;;20.16;61.74;101288.47;5037873;28;19958;-50
2023/10/11 11:00:34;;;;;;;;;;;;;;;20.16;61.45;101294.72;5042545;28;19960;-49
2023/10/11 11:03:00;;;;;;;;;;;;;;;20.16;61.66;101269.56;5043934;28;19940;-48
2023/10/11 11:05:29;;;;;;;;;;;;;;;20.17;61.48;101255.06;5039667;28;19916;-50
2023/10/11 11:08:15;;;;;;;;;;;;;;;20.17;61.44;101247.78;5043760;28;19913;-47
2023/10/11 11:10:54;;;;;;;;;;;;;;;20.17;61.75;101236.16;5043927;28;19918;-49
2023/10/11 11:13:19;;;;;;;;;;;;;;;20.17;61.50;101242.41;5052004;28;19944;-51
2023/10/11 11:15:44;;;;;;;;;;;;;;;19.78;61.19;101173.91;5045306;28;19909;-47
2023/10/11 11:18:11;;;;;;;;;;;;;;;20.19;61.61;101228.75;5042062;28;19971;-49
2023/10/11 11:20:40;;;;;;;;;;;;;;;20.19;61.58;101218.78;5040738;28;19909;-47
2023/10/11 11:23:05;;;;;;;;;;;;;;;20.19;61.47;101197.19;5039524;28;19909;-51
2023/10/11 11:25:34;;;;;;;;;;;;;;;20.20;61.59;101204.28;5038668;28;20136;-49
2023/10/11 11:28:03;;;;;;;;;;;;;;;20.21;61.51;101200.56;5041949;28;19909;-51
2023/10/11 11:30:34;;;;;;;;;;;;;;;20.22;61.30;101194.16;5042483;28;19916;-51
2023/10/11 11:33:00;;;;;;;;;;;;;;;20.22;61.38;101194.16;5039840;28;19910;-51
2023/10/11 11:35:29;;;;;;;;;;;;;;;20.23;61.52;101200.41;5037849;28;20440;-48
2023/10/11 11:38:01;;;;;;;;;;;;;;;20.23;61.34;101192.31;5042807;28;19991;-48
2023/10/11 11:40:27;;;;;;;;;;;;;;;20.22;61.43;101194.16;5039055;28;19910;-48
2023/10/11 11:42:53;;;;;;;;;;;;;;;20.23;61.70;101203.94;5043703;28;20401;-51
2023/10/11 11:45:19;;;;;;;;;;;;;;;20.23;61.32;101203.09;5041689;28;20287;-47
2023/10/11 11:47:55;;;;;;;;;;;;;;;20.22;61.59;101204.97;5042611;28;19909;-51
2023/10/11 11:50:21;;;;;;;;;;;;;;;20.21;61.34;101211.34;5037094;28;20409;-50
2023/10/11 11:52:46;;;;;;;;;;;;;;;20.22;61.51;101215.75;5037983;28;19909;-50
2023/10/11 11:55:11;;;;;;;;;;;;;;;20.22;61.65;101215.75;5037629;28;19962;-51
2023/10/11 11:57:37;;;;;;;;;;;;;;;20.21;61.55;101210.50;5040135;28;20300;-48
2023/10/11 12:00:27;;;;;;;;;;;;;;;20.22;61.58;101209.53;5041878;28;19931;-49
2023/10/11 12:02:51;;;;;;;;;;;;;;;20.21;61.47;101211.34;5038408;28;19943;-50
2023/10/11 12:05:17;;;;;;;;;;;;;;;20.22;61.61;101206.81;5036538;28;19913;-52
2023/10/11 12:07:43;;;;;;;;;;;;;;;20.21;61.73;101214.03;5041801;28;19919;-49
2023/10/11 12:10:23;;;;;;;;;;;;;;;20.22;61.38;101204.97;5039674;28;19909;-48
2023/10/11 12:12:50;;;;;;;;;;;;;;;20.21;61.55;101197.84;5042177;28;19925;-48
2023/10/11 12:15:16;;;;;;;;;;;;;;;20.21;61.50;101197.84;5039629;28;19909;-49
2023/10/11 12:17:42;;;;;;;;;;;;;;;20.21;61.79;101192.44;5043519;28;19920;-48
2023/10/11 12:20:12;;;;;;;;;;;;;;;20.23;61.85;101197.69;5038944;28;19913;-48
2023/10/11 12:22:42;;;;;;;;;;;;;;;20.21;61.73;101187.03;5040618;28;19920;-47
2023/10/11 12:25:07;;;;;;;;;;;;;;;20.23;61.51;101195.00;5047931;28;19909;-47
2023/10/11 12:27:32;;;;;;;;;;;;;;;20.22;61.79;101188.75;5040251;28;19909;-48
2023/10/11 12:29:59;;;;;;;;;;;;;;;20.23;61.49;101195.84;5043034;28;20039;-49
2023/10/11 12:32:24;;;;;;;;;;;;;;;20.22;61.78;101196.84;5042092;28;19923;-50
2023/10/11 12:34:51;;;;;;;;;;;;;;;20.23;61.58;101189.59;5037393;28;19971;-47
2023/10/11 12:37:16;;;;;;;;;;;;;;;20.23;61.79;101185.03;5042037;28;19928;-50
2023/10/11 12:39:41;;;;;;;;;;;;;;;20.24;61.89;101193.97;5041416;28;19909;-49
2023/10/11 12:42:11;;;;;;;;;;;;;;;20.24;61.59;101193.97;5040780;28;19909;-53
2023/10/11 12:44:40;;;;;;;;;;;;;;;20.26;61.80;101199.19;5042560;28;19913;-53
2023/10/11 12:47:10;;;;;;;;;;;;;;;20.26;61.58;101189.22;5038847;28;19913;-52
2023/10/11 12:49:35;;;;;;;;;;;;;;;20.26;61.66;101193.78;5041212;28;19956;-52
2023/10/11 12:52:05;;;;;;;;;;;;;;;20.27;61.61;101200.91;5042623;28;19916;-52
2023/10/11 12:54:31;;;;;;;;;;;;;;;20.27;61.49;101200.91;5039276;28;19917;-52
2023/10/11 12:56:56;;;;;;;;;;;;;;;20.27;61.60;101206.31;5042515;28;20697;-47
2023/10/11 12:59:22;;;;;;;;;;;;;;;20.27;61.72;101196.34;5040901;28;19917;-45
2023/10/11 13:01:52;;;;;;;;;;;;;;;20.27;61.93;101196.34;5040315;28;19909;-48
2023/10/11 13:04:17;;;;;;;;;;;;;;;20.27;61.83;101196.34;5042152;28;19982;-46
2023/10/11 13:06:49;;;;;;;;;;;;;;;20.27;61.66;101203.59;5038766;28;19940;-50
2023/10/11 13:09:15;;;;;;;;;;;;;;;20.27;61.63;101182.00;5041353;28;19917;-50
2023/10/11 13:11:46;;;;;;;;;;;;;;;20.26;62.01;101181.13;5042577;28;19971;-52
2023/10/11 13:14:18;;;;;;;;;;;;;;;20.26;61.86;101178.44;5036644;28;19969;-52
2023/10/11 13:16:43;;;;;;;;;;;;;;;20.27;61.88;101176.59;5039912;28;19999;-53
2023/10/11 13:19:08;;;;;;;;;;;;;;;20.26;61.90;101173.03;5042136;28;20408;-53
2023/10/11 13:21:35;;;;;;;;;;;;;;;20.26;61.93;101162.22;5040835;28;19909;-52
2023/10/11 13:24:04;;;;;;;;;;;;;;;20.26;61.95;101167.63;5039790;28;19917;-52
2023/10/11 13:26:32;;;;;;;;;;;;;;;20.26;62.03;101173.03;5039928;28;19913;-51
2023/10/11 13:28:58;;;;;;;;;;;;;;;20.27;61.94;101157.72;5035243;28;19916;-53
2023/10/11 13:31:24;;;;;;;;;;;;;;;20.28;61.96;101172.88;5040817;28;19936;-51